sensor_id;sensor_type;location;lat;lon;timestamp;temperature;humidity
45383;DHT22;42455;51.660;5.824;2022-11-20T00:02:21;0.8;88.0
45383;DHT22;42455;51.660;5.824;2022-11-20T00:07:27;0.7;88.0
45383;DHT22;42455;51.660;5.824;2022-11-20T00:12:33;0.7;88.0
45383;DHT22;42455;51.660;5.824;2022-11-20T00:17:40;0.7;88.0
45383;DHT22;42455;51.660;5.824;2022-11-20T00:22:46;0.7;88.5
45383;DHT22;42455;51.660;5.824;2022-11-20T00:27:52;0.7;88.5
45383;DHT22;42455;51.660;5.824;2022-11-20T00:32:58;0.6;88.5
45383;DHT22;42455;51.660;5.824;2022-11-20T00:38:04;0.7;88.5
45383;DHT22;42455;51.660;5.824;2022-11-20T00:43:11;0.6;88.5
45383;DHT22;42455;51.660;5.824;2022-11-20T00:48:17;0.6;88.5
45383;DHT22;42455;51.660;5.824;2022-11-20T00:53:24;0.6;88.5
45383;DHT22;42455;51.660;5.824;2022-11-20T00:58:30;0.5;88.5
45383;DHT22;42455;51.660;5.824;2022-11-20T01:03:37;0.5;88.5
45383;DHT22;42455;51.660;5.824;2022-11-20T01:08:40;0.5;88.5
45383;DHT22;42455;51.660;5.824;2022-11-20T01:13:47;0.5;88.5
45383;DHT22;42455;51.660;5.824;2022-11-20T01:18:54;0.4;88.5
45383;DHT22;42455;51.660;5.824;2022-11-20T01:24:01;0.4;88.5
45383;DHT22;42455;51.660;5.824;2022-11-20T01:29:06;0.4;88.5
45383;DHT22;42455;51.660;5.824;2022-11-20T01:34:13;0.3;89.0
45383;DHT22;42455;51.660;5.824;2022-11-20T01:39:18;0.3;89.0
45383;DHT22;42455;51.660;5.824;2022-11-20T01:44:43;0.3;89.0
45383;DHT22;42455;51.660;5.824;2022-11-20T01:49:38;0.3;88.5
45383;DHT22;42455;51.660;5.824;2022-11-20T01:54:39;0.2;89.0
45383;DHT22;42455;51.660;5.824;2022-11-20T01:59:47;0.2;89.0
45383;DHT22;42455;51.660;5.824;2022-11-20T02:04:49;0.2;89.0
45383;DHT22;42455;51.660;5.824;2022-11-20T02:09:54;0.2;89.0
45383;DHT22;42455;51.660;5.824;2022-11-20T02:15:01;0.2;89.0
45383;DHT22;42455;51.660;5.824;2022-11-20T02:20:08;0.2;89.0
45383;DHT22;42455;51.660;5.824;2022-11-20T02:25:13;0.1;89.0
45383;DHT22;42455;51.660;5.824;2022-11-20T02:30:19;0.1;89.0
45383;DHT22;42455;51.660;5.824;2022-11-20T02:35:44;0.1;89.0
45383;DHT22;42455;51.660;5.824;2022-11-20T02:40:31;0.0;89.0
45383;DHT22;42455;51.660;5.824;2022-11-20T02:45:38;0.0;89.5
45383;DHT22;42455;51.660;5.824;2022-11-20T02:50:44;0.0;89.5
45383;DHT22;42455;51.660;5.824;2022-11-20T02:55:49;0.0;89.5
45383;DHT22;42455;51.660;5.824;2022-11-20T03:00:55;-0.1;89.5
45383;DHT22;42455;51.660;5.824;2022-11-20T03:06:01;-0.1;89.5
45383;DHT22;42455;51.660;5.824;2022-11-20T03:11:07;-0.1;89.5
45383;DHT22;42455;51.660;5.824;2022-11-20T03:16:15;-0.1;90.0
45383;DHT22;42455;51.660;5.824;2022-11-20T03:21:19;-0.1;90.0
45383;DHT22;42455;51.660;5.824;2022-11-20T03:26:26;-0.1;90.0
45383;DHT22;42455;51.660;5.824;2022-11-20T03:31:34;-0.1;90.0
45383;DHT22;42455;51.660;5.824;2022-11-20T03:36:38;-0.1;90.0
45383;DHT22;42455;51.660;5.824;2022-11-20T03:41:44;-0.1;90.0
45383;DHT22;42455;51.660;5.824;2022-11-20T03:46:50;-0.1;90.0
45383;DHT22;42455;51.660;5.824;2022-11-20T03:51:56;-0.1;90.0
45383;DHT22;42455;51.660;5.824;2022-11-20T03:57:03;-0.2;90.0
45383;DHT22;42455;51.660;5.824;2022-11-20T04:02:09;-0.2;90.0
45383;DHT22;42455;51.660;5.824;2022-11-20T04:07:15;-0.2;89.5
45383;DHT22;42455;51.660;5.824;2022-11-20T04:12:21;-0.2;89.5
45383;DHT22;42455;51.660;5.824;2022-11-20T04:17:27;-0.3;89.5
45383;DHT22;42455;51.660;5.824;2022-11-20T04:22:34;-0.3;89.5
45383;DHT22;42455;51.660;5.824;2022-11-20T04:27:40;-0.4;89.5
45383;DHT22;42455;51.660;5.824;2022-11-20T04:32:46;-0.4;89.5
45383;DHT22;42455;51.660;5.824;2022-11-20T04:37:52;-0.4;90.0
45383;DHT22;42455;51.660;5.824;2022-11-20T04:42:59;-0.5;90.0
45383;DHT22;42455;51.660;5.824;2022-11-20T04:48:05;-0.5;90.0
45383;DHT22;42455;51.660;5.824;2022-11-20T04:53:11;-0.5;90.0
45383;DHT22;42455;51.660;5.824;2022-11-20T04:58:16;-0.5;90.0
45383;DHT22;42455;51.660;5.824;2022-11-20T05:03:22;-0.5;90.0
45383;DHT22;42455;51.660;5.824;2022-11-20T05:08:29;-0.6;90.0
45383;DHT22;42455;51.660;5.824;2022-11-20T05:13:34;-0.6;90.0
45383;DHT22;42455;51.660;5.824;2022-11-20T05:18:41;-0.6;90.0
45383;DHT22;42455;51.660;5.824;2022-11-20T05:23:47;-0.6;90.0
45383;DHT22;42455;51.660;5.824;2022-11-20T05:28:53;-0.7;90.0
45383;DHT22;42455;51.660;5.824;2022-11-20T05:33:59;-0.6;90.0
45383;DHT22;42455;51.660;5.824;2022-11-20T05:39:05;-0.6;90.5
45383;DHT22;42455;51.660;5.824;2022-11-20T05:44:12;-0.7;90.0
45383;DHT22;42455;51.660;5.824;2022-11-20T05:49:17;-0.7;90.5
45383;DHT22;42455;51.660;5.824;2022-11-20T05:54:24;-0.7;90.5
45383;DHT22;42455;51.660;5.824;2022-11-20T05:59:30;-0.7;90.5
45383;DHT22;42455;51.660;5.824;2022-11-20T06:04:36;-0.7;90.5
45383;DHT22;42455;51.660;5.824;2022-11-20T06:09:42;-0.7;90.5
45383;DHT22;42455;51.660;5.824;2022-11-20T06:14:48;-0.7;90.5
45383;DHT22;42455;51.660;5.824;2022-11-20T06:19:55;-0.7;90.5
45383;DHT22;42455;51.660;5.824;2022-11-20T06:25:01;-0.7;90.5
45383;DHT22;42455;51.660;5.824;2022-11-20T06:30:07;-0.7;90.5
45383;DHT22;42455;51.660;5.824;2022-11-20T06:35:12;-0.7;90.0
45383;DHT22;42455;51.660;5.824;2022-11-20T06:40:19;-0.8;90.0
45383;DHT22;42455;51.660;5.824;2022-11-20T06:45:25;-0.8;90.5
45383;DHT22;42455;51.660;5.824;2022-11-20T06:50:31;-0.8;90.5
45383;DHT22;42455;51.660;5.824;2022-11-20T06:55:41;-0.8;90.5
45383;DHT22;42455;51.660;5.824;2022-11-20T07:00:43;-0.8;90.5
45383;DHT22;42455;51.660;5.824;2022-11-20T07:05:49;-0.8;90.5
45383;DHT22;42455;51.660;5.824;2022-11-20T07:10:57;-0.8;90.5
45383;DHT22;42455;51.660;5.824;2022-11-20T07:16:02;0.0;0.0
45383;DHT22;42455;51.660;5.824;2022-11-20T07:21:09;-0.8;90.5
45383;DHT22;42455;51.660;5.824;2022-11-20T07:26:13;-0.8;90.5
45383;DHT22;42455;51.660;5.824;2022-11-20T07:31:19;-0.8;90.5
45383;DHT22;42455;51.660;5.824;2022-11-20T07:36:25;-0.7;90.5
45383;DHT22;42455;51.660;5.824;2022-11-20T07:41:31;-0.7;90.5
45383;DHT22;42455;51.660;5.824;2022-11-20T07:46:37;-0.7;90.5
45383;DHT22;42455;51.660;5.824;2022-11-20T07:51:44;-0.7;91.0
45383;DHT22;42455;51.660;5.824;2022-11-20T07:56:50;-0.6;91.0
45383;DHT22;42455;51.660;5.824;2022-11-20T08:01:56;-0.6;91.0
45383;DHT22;42455;51.660;5.824;2022-11-20T08:07:02;-0.4;91.5
45383;DHT22;42455;51.660;5.824;2022-11-20T08:12:17;-0.3;91.5
45383;DHT22;42455;51.660;5.824;2022-11-20T08:17:15;-0.2;91.5
45383;DHT22;42455;51.660;5.824;2022-11-20T08:22:21;-0.1;92.0
45383;DHT22;42455;51.660;5.824;2022-11-20T08:27:27;0.1;92.0
45383;DHT22;42455;51.660;5.824;2022-11-20T08:32:33;0.2;92.0
45383;DHT22;42455;51.660;5.824;2022-11-20T08:37:39;0.4;92.0
45383;DHT22;42455;51.660;5.824;2022-11-20T08:42:46;0.5;92.0
45383;DHT22;42455;51.660;5.824;2022-11-20T08:47:52;0.6;92.0
45383;DHT22;42455;51.660;5.824;2022-11-20T08:53:01;0.8;92.5
45383;DHT22;42455;51.660;5.824;2022-11-20T08:58:04;1.0;92.5
45383;DHT22;42455;51.660;5.824;2022-11-20T09:03:09;1.1;92.5
45383;DHT22;42455;51.660;5.824;2022-11-20T09:08:15;1.2;92.0
45383;DHT22;42455;51.660;5.824;2022-11-20T09:13:22;0.0;0.0
45383;DHT22;42455;51.660;5.824;2022-11-20T09:18:28;1.5;92.5
45383;DHT22;42455;51.660;5.824;2022-11-20T09:23:35;1.6;92.5
45383;DHT22;42455;51.660;5.824;2022-11-20T09:28:40;1.8;92.5
45383;DHT22;42455;51.660;5.824;2022-11-20T09:33:46;1.9;92.5
45383;DHT22;42455;51.660;5.824;2022-11-20T09:38:52;2.0;92.5
45383;DHT22;42455;51.660;5.824;2022-11-20T09:44:22;2.1;92.5
45383;DHT22;42455;51.660;5.824;2022-11-20T09:49:38;2.3;93.0
45383;DHT22;42455;51.660;5.824;2022-11-20T09:54:31;2.4;93.0
45383;DHT22;42455;51.660;5.824;2022-11-20T09:59:33;2.6;93.0
45383;DHT22;42455;51.660;5.824;2022-11-20T10:04:24;2.7;93.0
45383;DHT22;42455;51.660;5.824;2022-11-20T10:09:51;2.8;93.0
45383;DHT22;42455;51.660;5.824;2022-11-20T10:15:10;3.0;93.0
45383;DHT22;42455;51.660;5.824;2022-11-20T10:20:57;3.1;93.0
45383;DHT22;42455;51.660;5.824;2022-11-20T10:27:07;3.2;93.0
45383;DHT22;42455;51.660;5.824;2022-11-20T10:30:24;3.4;93.5
45383;DHT22;42455;51.660;5.824;2022-11-20T10:35:28;3.5;93.5
45383;DHT22;42455;51.660;5.824;2022-11-20T10:40:19;3.6;93.0
45383;DHT22;42455;51.660;5.824;2022-11-20T10:45:43;3.7;93.0
45383;DHT22;42455;51.660;5.824;2022-11-20T10:51:10;3.8;93.0
45383;DHT22;42455;51.660;5.824;2022-11-20T10:56:50;3.9;93.0
45383;DHT22;42455;51.660;5.824;2022-11-20T11:00:31;4.0;93.0
45383;DHT22;42455;51.660;5.824;2022-11-20T11:05:49;4.0;93.0
45383;DHT22;42455;51.660;5.824;2022-11-20T11:10:46;0.0;0.0
45383;DHT22;42455;51.660;5.824;2022-11-20T11:15:48;4.2;93.0
45383;DHT22;42455;51.660;5.824;2022-11-20T11:20:55;4.3;93.5
45383;DHT22;42455;51.660;5.824;2022-11-20T11:26:02;4.4;93.5
45383;DHT22;42455;51.660;5.824;2022-11-20T11:31:07;4.5;93.5
45383;DHT22;42455;51.660;5.824;2022-11-20T11:36:18;4.6;93.5
45383;DHT22;42455;51.660;5.824;2022-11-20T11:41:22;4.7;93.5
45383;DHT22;42455;51.660;5.824;2022-11-20T11:46:29;4.9;93.5
45383;DHT22;42455;51.660;5.824;2022-11-20T11:51:36;4.9;93.5
45383;DHT22;42455;51.660;5.824;2022-11-20T11:56:38;5.0;93.5
45383;DHT22;42455;51.660;5.824;2022-11-20T12:01:50;5.1;93.5
45383;DHT22;42455;51.660;5.824;2022-11-20T12:06:57;5.1;93.5
45383;DHT22;42455;51.660;5.824;2022-11-20T12:12:04;5.2;93.5
45383;DHT22;42455;51.660;5.824;2022-11-20T12:17:03;5.2;93.5
45383;DHT22;42455;51.660;5.824;2022-11-20T12:22:13;5.3;93.5
45383;DHT22;42455;51.660;5.824;2022-11-20T12:27:59;5.3;93.5
45383;DHT22;42455;51.660;5.824;2022-11-20T12:33:04;5.4;93.5
45383;DHT22;42455;51.660;5.824;2022-11-20T12:38:56;5.4;94.0
45383;DHT22;42455;51.660;5.824;2022-11-20T12:43:22;5.5;94.0
45383;DHT22;42455;51.660;5.824;2022-11-20T12:48:48;5.5;94.0
45383;DHT22;42455;51.660;5.824;2022-11-20T12:54:44;5.6;94.0
45383;DHT22;42455;51.660;5.824;2022-11-20T12:59:38;5.6;94.0
45383;DHT22;42455;51.660;5.824;2022-11-20T13:03:34;5.6;94.0
45383;DHT22;42455;51.660;5.824;2022-11-20T13:08:03;5.7;94.0
45383;DHT22;42455;51.660;5.824;2022-11-20T13:13:15;5.7;94.0
45383;DHT22;42455;51.660;5.824;2022-11-20T13:18:15;5.7;94.0
45383;DHT22;42455;51.660;5.824;2022-11-20T13:23:24;5.7;94.5
45383;DHT22;42455;51.660;5.824;2022-11-20T13:28:29;5.8;94.5
45383;DHT22;42455;51.660;5.824;2022-11-20T13:33:35;5.8;94.5
45383;DHT22;42455;51.660;5.824;2022-11-20T13:38:46;5.9;94.5
45383;DHT22;42455;51.660;5.824;2022-11-20T13:43:47;5.9;94.5
45383;DHT22;42455;51.660;5.824;2022-11-20T13:48:54;6.0;94.5
45383;DHT22;42455;51.660;5.824;2022-11-20T13:55:16;6.0;94.5
45383;DHT22;42455;51.660;5.824;2022-11-20T14:00:21;6.1;94.5
45383;DHT22;42455;51.660;5.824;2022-11-20T14:04:19;6.1;94.5
45383;DHT22;42455;51.660;5.824;2022-11-20T14:09:33;6.1;94.5
45383;DHT22;42455;51.660;5.824;2022-11-20T14:14:25;6.1;95.0
45383;DHT22;42455;51.660;5.824;2022-11-20T14:19:32;6.1;95.0
45383;DHT22;42455;51.660;5.824;2022-11-20T14:24:36;6.1;95.0
45383;DHT22;42455;51.660;5.824;2022-11-20T14:29:44;6.2;95.0
45383;DHT22;42455;51.660;5.824;2022-11-20T14:34:50;6.2;95.0
45383;DHT22;42455;51.660;5.824;2022-11-20T14:39:56;6.2;95.0
45383;DHT22;42455;51.660;5.824;2022-11-20T14:45:01;6.2;95.0
45383;DHT22;42455;51.660;5.824;2022-11-20T14:50:18;6.3;95.0
45383;DHT22;42455;51.660;5.824;2022-11-20T14:55:13;6.2;95.5
45383;DHT22;42455;51.660;5.824;2022-11-20T15:00:20;6.3;95.5
45383;DHT22;42455;51.660;5.824;2022-11-20T15:05:43;6.3;95.5
45383;DHT22;42455;51.660;5.824;2022-11-20T15:10:30;6.3;95.5
45383;DHT22;42455;51.660;5.824;2022-11-20T15:15:44;6.3;95.5
45383;DHT22;42455;51.660;5.824;2022-11-20T15:20:43;6.3;95.5
45383;DHT22;42455;51.660;5.824;2022-11-20T15:25:49;6.3;95.5
45383;DHT22;42455;51.660;5.824;2022-11-20T15:30:54;6.3;95.5
45383;DHT22;42455;51.660;5.824;2022-11-20T15:36:01;6.4;96.0
45383;DHT22;42455;51.660;5.824;2022-11-20T15:41:07;6.4;96.0
45383;DHT22;42455;51.660;5.824;2022-11-20T15:46:15;6.4;96.0
45383;DHT22;42455;51.660;5.824;2022-11-20T15:51:27;6.4;96.0
45383;DHT22;42455;51.660;5.824;2022-11-20T15:56:26;6.4;96.0
45383;DHT22;42455;51.660;5.824;2022-11-20T16:01:32;6.4;96.0
45383;DHT22;42455;51.660;5.824;2022-11-20T16:06:38;6.4;96.0
45383;DHT22;42455;51.660;5.824;2022-11-20T16:11:44;6.4;96.5
45383;DHT22;42455;51.660;5.824;2022-11-20T16:16:50;6.4;96.5
45383;DHT22;42455;51.660;5.824;2022-11-20T16:21:57;6.5;96.5
45383;DHT22;42455;51.660;5.824;2022-11-20T16:27:03;6.5;96.5
45383;DHT22;42455;51.660;5.824;2022-11-20T16:32:09;6.5;96.5
45383;DHT22;42455;51.660;5.824;2022-11-20T16:37:15;6.5;97.0
45383;DHT22;42455;51.660;5.824;2022-11-20T16:42:21;6.6;96.5
45383;DHT22;42455;51.660;5.824;2022-11-20T16:47:28;6.6;97.0
45383;DHT22;42455;51.660;5.824;2022-11-20T16:52:33;6.6;97.0
45383;DHT22;42455;51.660;5.824;2022-11-20T16:57:39;6.7;97.0
45383;DHT22;42455;51.660;5.824;2022-11-20T17:02:44;6.7;97.0
45383;DHT22;42455;51.660;5.824;2022-11-20T17:07:50;6.7;97.0
45383;DHT22;42455;51.660;5.824;2022-11-20T17:12:57;6.8;97.0
45383;DHT22;42455;51.660;5.824;2022-11-20T17:18:03;6.8;97.0
45383;DHT22;42455;51.660;5.824;2022-11-20T17:23:09;6.8;97.5
45383;DHT22;42455;51.660;5.824;2022-11-20T17:28:15;6.9;97.5
45383;DHT22;42455;51.660;5.824;2022-11-20T17:33:21;6.9;97.5
45383;DHT22;42455;51.660;5.824;2022-11-20T17:38:29;7.0;97.5
45383;DHT22;42455;51.660;5.824;2022-11-20T17:43:34;7.0;97.5
45383;DHT22;42455;51.660;5.824;2022-11-20T17:48:41;7.0;98.0
45383;DHT22;42455;51.660;5.824;2022-11-20T17:53:50;7.1;98.0
45383;DHT22;42455;51.660;5.824;2022-11-20T17:58:53;7.1;98.0
45383;DHT22;42455;51.660;5.824;2022-11-20T18:03:59;7.2;98.0
45383;DHT22;42455;51.660;5.824;2022-11-20T18:09:05;7.2;98.0
45383;DHT22;42455;51.660;5.824;2022-11-20T18:14:13;7.3;98.0
45383;DHT22;42455;51.660;5.824;2022-11-20T18:19:22;7.3;98.0
45383;DHT22;42455;51.660;5.824;2022-11-20T18:24:24;7.4;98.0
45383;DHT22;42455;51.660;5.824;2022-11-20T18:29:30;7.4;98.0
45383;DHT22;42455;51.660;5.824;2022-11-20T18:34:36;7.5;98.0
45383;DHT22;42455;51.660;5.824;2022-11-20T18:39:42;7.5;98.5
45383;DHT22;42455;51.660;5.824;2022-11-20T18:44:48;7.5;98.5
45383;DHT22;42455;51.660;5.824;2022-11-20T18:49:57;7.6;98.5
45383;DHT22;42455;51.660;5.824;2022-11-20T18:55:01;7.6;98.5
45383;DHT22;42455;51.660;5.824;2022-11-20T19:00:06;7.6;98.5
45383;DHT22;42455;51.660;5.824;2022-11-20T19:05:13;7.7;98.5
45383;DHT22;42455;51.660;5.824;2022-11-20T19:10:18;7.7;98.5
45383;DHT22;42455;51.660;5.824;2022-11-20T19:15:24;7.8;98.5
45383;DHT22;42455;51.660;5.824;2022-11-20T19:20:30;7.9;98.5
45383;DHT22;42455;51.660;5.824;2022-11-20T19:25:36;7.9;98.5
45383;DHT22;42455;51.660;5.824;2022-11-20T19:30:42;7.9;98.5
45383;DHT22;42455;51.660;5.824;2022-11-20T19:35:49;7.8;98.5
45383;DHT22;42455;51.660;5.824;2022-11-20T19:40:55;7.8;98.5
45383;DHT22;42455;51.660;5.824;2022-11-20T19:46:01;7.8;98.5
45383;DHT22;42455;51.660;5.824;2022-11-20T19:51:08;7.8;98.5
45383;DHT22;42455;51.660;5.824;2022-11-20T19:56:14;7.8;98.5
45383;DHT22;42455;51.660;5.824;2022-11-20T20:01:21;7.8;98.5
45383;DHT22;42455;51.660;5.824;2022-11-20T20:06:26;7.7;98.5
45383;DHT22;42455;51.660;5.824;2022-11-20T20:11:33;7.7;98.5
45383;DHT22;42455;51.660;5.824;2022-11-20T20:16:39;7.7;98.5
45383;DHT22;42455;51.660;5.824;2022-11-20T20:21:44;7.6;98.5
45383;DHT22;42455;51.660;5.824;2022-11-20T20:26:51;7.5;98.5
45383;DHT22;42455;51.660;5.824;2022-11-20T20:31:57;7.5;98.5
45383;DHT22;42455;51.660;5.824;2022-11-20T20:37:03;7.4;98.5
45383;DHT22;42455;51.660;5.824;2022-11-20T20:42:09;7.4;98.5
45383;DHT22;42455;51.660;5.824;2022-11-20T20:47:14;7.3;98.5
45383;DHT22;42455;51.660;5.824;2022-11-20T20:52:21;7.3;98.5
45383;DHT22;42455;51.660;5.824;2022-11-20T20:57:26;7.3;98.5
45383;DHT22;42455;51.660;5.824;2022-11-20T21:02:32;7.2;98.5
45383;DHT22;42455;51.660;5.824;2022-11-20T21:07:38;7.2;98.5
45383;DHT22;42455;51.660;5.824;2022-11-20T21:12:45;7.1;98.5
45383;DHT22;42455;51.660;5.824;2022-11-20T21:17:51;7.1;98.5
45383;DHT22;42455;51.660;5.824;2022-11-20T21:22:57;7.1;98.5
45383;DHT22;42455;51.660;5.824;2022-11-20T21:28:03;7.1;98.5
45383;DHT22;42455;51.660;5.824;2022-11-20T21:33:09;7.0;98.5
45383;DHT22;42455;51.660;5.824;2022-11-20T21:38:16;7.0;98.0
45383;DHT22;42455;51.660;5.824;2022-11-20T21:43:22;7.0;98.0
45383;DHT22;42455;51.660;5.824;2022-11-20T21:48:28;6.9;98.0
45383;DHT22;42455;51.660;5.824;2022-11-20T21:53:34;6.9;98.0
45383;DHT22;42455;51.660;5.824;2022-11-20T21:58:41;6.9;98.0
45383;DHT22;42455;51.660;5.824;2022-11-20T22:03:48;6.8;98.0
45383;DHT22;42455;51.660;5.824;2022-11-20T22:08:53;6.8;98.0
45383;DHT22;42455;51.660;5.824;2022-11-20T22:13:59;6.8;98.0
45383;DHT22;42455;51.660;5.824;2022-11-20T22:19:05;6.8;98.0
45383;DHT22;42455;51.660;5.824;2022-11-20T22:24:12;6.8;98.5
45383;DHT22;42455;51.660;5.824;2022-11-20T22:29:19;6.8;98.5
45383;DHT22;42455;51.660;5.824;2022-11-20T22:34:24;6.8;98.5
45383;DHT22;42455;51.660;5.824;2022-11-20T22:39:30;6.7;98.0
45383;DHT22;42455;51.660;5.824;2022-11-20T22:44:35;6.7;98.5
45383;DHT22;42455;51.660;5.824;2022-11-20T22:49:41;6.7;98.0
45383;DHT22;42455;51.660;5.824;2022-11-20T22:59:54;6.7;98.5
45383;DHT22;42455;51.660;5.824;2022-11-20T23:04:59;6.7;98.5
45383;DHT22;42455;51.660;5.824;2022-11-20T23:10:06;6.7;98.5
45383;DHT22;42455;51.660;5.824;2022-11-20T23:15:12;6.7;98.5
45383;DHT22;42455;51.660;5.824;2022-11-20T23:20:18;6.7;98.0
45383;DHT22;42455;51.660;5.824;2022-11-20T23:25:24;6.7;98.0
45383;DHT22;42455;51.660;5.824;2022-11-20T23:30:30;6.7;98.0
45383;DHT22;42455;51.660;5.824;2022-11-20T23:35:37;6.7;98.0
45383;DHT22;42455;51.660;5.824;2022-11-20T23:40:45;6.7;98.0
45383;DHT22;42455;51.660;5.824;2022-11-20T23:45:49;6.7;98.0
45383;DHT22;42455;51.660;5.824;2022-11-20T23:50:55;6.6;98.5
45383;DHT22;42455;51.660;5.824;2022-11-20T23:56:02;6.7;98.5
